Time;durP1;ratioP1;P1;durP2;ratioP2;P2;SDS_P1;SDS_P2;PMS_P1;PMS_P2;Temp;Humidity;BMP_temperature;BMP_pressure;BME280_temperature;BME280_humidity;BME280_pressure;Samples;Min_cycle;Max_cycle;Signal;HPM_P1;HPM_P2
2021/06/16 00:02:20;;;;;;;7.88;2.90;;;15.70;90.50;;;;;;4972614;28;20113;-85
2021/06/16 00:04:46;;;;;;;13.23;3.53;;;15.70;90.70;;;;;;4955611;28;20023;-82
2021/06/16 00:07:12;;;;;;;8.55;2.75;;;15.60;90.60;;;;;;4956230;28;20435;-85
2021/06/16 00:09:37;;;;;;;7.78;3.15;;;15.70;90.80;;;;;;4972442;28;20030;-84
2021/06/16 00:12:03;;;;;;;5.63;2.85;;;15.60;91.00;;;;;;4955834;28;20031;-80
2021/06/16 00:14:29;;;;;;;4.30;2.58;;;15.60;91.10;;;;;;4972871;28;20023;-79
2021/06/16 00:16:55;;;;;;;7.00;2.67;;;15.50;91.30;;;;;;4972869;28;20210;-76
2021/06/16 00:19:20;;;;;;;6.70;2.92;;;15.50;91.30;;;;;;4973378;28;20034;-80
2021/06/16 00:21:46;;;;;;;6.68;2.90;;;15.50;91.40;;;;;;4972191;28;20062;-77
2021/06/16 00:24:14;;;;;;;7.57;2.78;;;15.50;91.40;;;;;;4973287;28;20035;-81
2021/06/16 00:26:42;;;;;;;5.82;2.95;;;15.40;91.40;;;;;;4955652;28;20479;-83
2021/06/16 00:29:08;;;;;;;7.65;2.90;;;15.40;91.50;;;;;;4954718;28;20031;-82
2021/06/16 00:31:33;;;;;;;5.78;2.90;;;15.40;91.70;;;;;;4957666;28;20019;-83
2021/06/16 00:33:59;;;;;;;7.25;3.13;;;15.30;91.70;;;;;;4976511;28;20463;-81
2021/06/16 00:36:24;;;;;;;10.18;3.35;;;15.30;91.70;;;;;;4976402;28;20431;-84
2021/06/16 00:38:50;;;;;;;12.98;3.42;;;15.30;91.80;;;;;;4976536;28;20430;-84
2021/06/16 00:41:16;;;;;;;7.90;3.20;;;15.30;91.80;;;;;;4977039;28;20034;-80
2021/06/16 00:43:41;;;;;;;9.18;3.20;;;15.30;91.90;;;;;;4958925;28;20106;-84
2021/06/16 00:46:07;;;;;;;7.90;3.33;;;15.20;91.90;;;;;;4976498;28;20027;-85
2021/06/16 00:48:32;;;;;;;7.40;3.42;;;15.20;92.00;;;;;;4976659;28;20066;-84
2021/06/16 00:50:58;;;;;;;9.73;3.45;;;15.20;92.00;;;;;;4975678;28;20025;-84
2021/06/16 00:53:24;;;;;;;6.47;3.22;;;15.10;92.10;;;;;;4959440;28;20026;-84
2021/06/16 00:55:49;;;;;;;5.82;3.15;;;15.10;92.20;;;;;;4976252;28;20394;-84
2021/06/16 00:58:15;;;;;;;9.07;3.30;;;15.10;92.00;;;;;;4975540;28;20019;-83
2021/06/16 01:00:46;;;;;;;8.15;3.55;;;15.10;91.90;;;;;;4959166;28;20126;-82
2021/06/16 01:03:33;;;;;;;7.65;2.90;;;15.00;92.00;;;;;;4976677;28;20030;-84
2021/06/16 01:06:04;;;;;;;4.55;2.65;;;15.00;91.90;;;;;;4958217;28;20026;-84
2021/06/16 01:08:39;;;;;;;12.57;3.28;;;15.00;91.90;;;;;;4976383;28;20027;-84
2021/06/16 01:11:09;;;;;;;7.32;3.05;;;15.00;92.00;;;;;;4975753;28;20423;-85
2021/06/16 01:13:44;;;;;;;5.85;2.97;;;15.00;92.20;;;;;;4976442;28;20030;-84
2021/06/16 01:16:27;;;;;;;7.75;2.88;;;15.00;92.30;;;;;;4976038;28;20390;-85
2021/06/16 01:18:55;;;;;;;8.38;3.35;;;14.90;92.40;;;;;;4975217;28;20030;-84
2021/06/16 01:21:23;;;;;;;5.13;2.65;;;14.80;92.50;;;;;;4958860;28;20089;-86
2021/06/16 01:23:52;;;;;;;6.90;2.65;;;14.80;92.40;;;;;;4975980;28;20046;-84
2021/06/16 01:26:39;;;;;;;7.53;3.10;;;14.80;92.40;;;;;;4974365;28;20030;-83
2021/06/16 01:29:20;;;;;;;7.65;2.75;;;14.80;92.50;;;;;;4982085;28;20035;-83
2021/06/16 01:31:48;;;;;;;7.55;3.17;;;14.70;92.50;;;;;;4963445;28;20031;-71
2021/06/16 01:34:16;;;;;;;5.97;2.80;;;14.70;92.60;;;;;;4995111;28;20031;-78
2021/06/16 01:36:45;;;;;;;5.40;2.47;;;14.70;92.60;;;;;;4983287;28;20030;-82
2021/06/16 01:39:14;;;;;;;6.00;2.47;;;14.70;92.70;;;;;;4975018;28;20442;-84
2021/06/16 01:41:41;;;;;;;3.85;2.72;;;14.60;93.10;;;;;;4974146;28;20023;-84
2021/06/16 01:44:08;;;;;;;8.15;2.60;;;14.70;92.90;;;;;;4972483;28;20505;-84
2021/06/16 01:46:34;;;;;;;7.07;2.38;;;14.60;92.90;;;;;;4974878;28;20022;-84
2021/06/16 01:49:00;;;;;;;5.90;2.63;;;14.60;92.90;;;;;;4975063;28;20038;-83
2021/06/16 01:51:27;;;;;;;6.65;2.83;;;14.60;92.90;;;;;;4975780;28;20037;-84
2021/06/16 01:53:55;;;;;;;5.32;2.75;;;14.60;92.90;;;;;;4974237;28;20038;-84
2021/06/16 01:56:21;;;;;;;6.88;2.80;;;14.50;93.00;;;;;;4976071;28;20030;-83
2021/06/16 01:58:47;;;;;;;6.45;2.50;;;14.50;92.90;;;;;;4975150;28;20364;-80
2021/06/16 02:01:15;;;;;;;8.25;2.47;;;14.50;93.00;;;;;;4957513;28;20698;-84
2021/06/16 02:03:41;;;;;;;5.43;2.50;;;14.50;93.00;;;;;;4958246;28;20377;-84
2021/06/16 02:06:07;;;;;;;6.85;2.60;;;14.40;93.00;;;;;;4975045;28;20080;-84
2021/06/16 02:08:35;;;;;;;5.88;3.00;;;14.40;93.10;;;;;;4957655;28;20486;-84
2021/06/16 02:11:02;;;;;;;3.90;2.58;;;14.40;93.10;;;;;;4974999;28;20027;-78
2021/06/16 02:13:33;;;;;;;7.15;2.40;;;14.40;93.20;;;;;;4975435;28;20023;-84
2021/06/16 02:16:13;;;;;;;4.28;2.45;;;14.30;93.20;;;;;;4974063;28;20042;-79
2021/06/16 02:18:47;;;;;;;7.72;2.67;;;14.30;93.20;;;;;;4958004;28;20105;-77
2021/06/16 02:21:14;;;;;;;7.13;2.58;;;14.30;93.30;;;;;;4974463;28;20027;-82
2021/06/16 02:23:43;;;;;;;9.63;2.80;;;14.20;93.40;;;;;;4974647;28;20549;-75
2021/06/16 02:26:13;;;;;;;6.68;3.05;;;14.20;93.50;;;;;;4975426;28;20027;-74
2021/06/16 02:28:40;;;;;;;8.60;2.42;;;14.20;93.50;;;;;;4974142;28;20042;-74
2021/06/16 02:31:06;;;;;;;4.35;2.58;;;14.20;93.50;;;;;;4957301;28;20027;-77
2021/06/16 02:33:32;;;;;;;7.32;2.63;;;14.20;93.60;;;;;;4974758;28;20027;-73
2021/06/16 02:35:58;;;;;;;5.93;2.55;;;14.20;93.60;;;;;;4973622;28;20030;-73
2021/06/16 02:38:29;;;;;;;5.88;3.08;;;14.10;93.60;;;;;;4974843;28;20014;-72
2021/06/16 02:40:56;;;;;;;5.75;2.70;;;14.10;93.70;;;;;;4974359;28;20034;-73
2021/06/16 02:43:22;;;;;;;6.30;2.80;;;14.10;93.70;;;;;;4974041;28;20030;-76
2021/06/16 02:45:49;;;;;;;7.60;3.22;;;14.10;93.70;;;;;;4956865;28;20470;-74
2021/06/16 02:48:17;;;;;;;4.93;2.47;;;14.10;93.70;;;;;;4956966;28;20061;-72
2021/06/16 02:50:44;;;;;;;7.32;3.25;;;14.10;93.80;;;;;;4973781;28;20074;-78
2021/06/16 02:53:25;;;;;;;7.40;2.95;;;14.10;93.80;;;;;;4974273;28;20106;-76
2021/06/16 02:55:54;;;;;;;6.15;3.28;;;14.00;93.90;;;;;;4973768;28;20094;-75
2021/06/16 02:58:21;;;;;;;9.80;3.05;;;14.00;93.90;;;;;;4956307;28;20386;-78
2021/06/16 03:00:52;;;;;;;8.75;3.28;;;14.00;93.90;;;;;;4974082;28;20070;-74
2021/06/16 03:03:20;;;;;;;;;;;14.00;94.10;;;;;;4974158;28;20390;-79
2021/06/16 03:05:48;;;;;;;6.10;3.08;;;13.90;94.10;;;;;;4973894;28;19957;-76
2021/06/16 03:08:14;;;;;;;8.75;2.78;;;13.90;94.10;;;;;;4956949;28;20066;-81
2021/06/16 03:10:40;;;;;;;6.65;3.42;;;13.90;94.20;;;;;;4956158;28;20035;-80
2021/06/16 03:13:06;;;;;;;8.10;3.60;;;13.90;94.20;;;;;;4956473;28;20469;-81
2021/06/16 03:15:32;;;;;;;7.85;3.05;;;13.90;94.30;;;;;;4974062;28;20054;-78
2021/06/16 03:17:58;;;;;;;7.97;3.03;;;13.80;94.40;;;;;;4972943;28;20030;-82
2021/06/16 03:20:26;;;;;;;7.53;3.28;;;13.80;94.40;;;;;;4974153;28;20019;-81
2021/06/16 03:22:54;;;;;;;6.38;3.40;;;13.80;94.40;;;;;;4957197;28;20121;-82
2021/06/16 03:25:20;;;;;;;5.18;3.45;;;13.80;94.50;;;;;;4979959;28;20062;-79
2021/06/16 03:27:47;;;;;;;4.95;3.05;;;13.80;94.50;;;;;;4974714;28;20050;-81
2021/06/16 03:30:13;;;;;;;7.35;3.42;;;13.80;94.50;;;;;;4973888;28;20022;-82
2021/06/16 03:32:41;;;;;;;5.85;3.53;;;13.80;94.50;;;;;;4967294;28;20020;-70
2021/06/16 03:35:07;;;;;;;7.75;3.60;;;13.80;94.40;;;;;;4954199;29;20031;-79
2021/06/16 03:37:35;;;;;;;10.63;3.58;;;13.90;94.40;;;;;;4953525;29;20095;-84
2021/06/16 03:40:02;;;;;;;8.98;3.50;;;13.90;94.50;;;;;;4950037;29;20019;-79
2021/06/16 03:42:28;;;;;;;8.77;3.58;;;13.90;94.50;;;;;;4953265;29;20511;-83
2021/06/16 03:44:55;;;;;;;7.32;3.95;;;13.90;94.50;;;;;;4953178;29;20023;-77
2021/06/16 03:47:22;;;;;;;6.40;3.70;;;13.90;94.40;;;;;;4953427;29;20046;-84
2021/06/16 03:49:50;;;;;;;9.43;3.67;;;14.00;94.50;;;;;;4954393;29;20118;-78
2021/06/16 03:52:18;;;;;;;7.72;3.35;;;14.00;94.40;;;;;;4958554;28;20033;-82
2021/06/16 03:54:46;;;;;;;7.93;3.55;;;14.00;94.40;;;;;;4972068;28;20043;-77
2021/06/16 03:57:12;;;;;;;8.35;4.22;;;14.00;94.50;;;;;;4973269;28;20015;-81
2021/06/16 03:59:39;;;;;;;5.85;3.80;;;14.00;94.40;;;;;;4958889;28;20498;-82
2021/06/16 04:02:05;;;;;;;6.03;3.50;;;14.10;94.50;;;;;;4974270;28;20482;-82
2021/06/16 04:04:32;;;;;;;5.82;3.45;;;14.10;94.40;;;;;;4955804;28;20399;-81
2021/06/16 04:06:59;;;;;;;9.10;3.47;;;14.10;94.30;;;;;;4954315;28;20030;-82
2021/06/16 04:09:25;;;;;;;8.02;3.97;;;14.10;94.30;;;;;;4973189;28;20027;-74
2021/06/16 04:11:51;;;;;;;6.45;3.65;;;14.20;94.40;;;;;;4973177;28;20057;-78
2021/06/16 04:14:17;;;;;;;7.28;3.72;;;14.20;94.40;;;;;;4972651;28;20439;-82
2021/06/16 04:16:43;;;;;;;6.97;3.92;;;14.20;94.30;;;;;;4956025;28;20046;-82
2021/06/16 04:19:09;;;;;;;4.85;3.45;;;14.30;94.40;;;;;;4973035;28;20050;-76
2021/06/16 04:21:35;;;;;;;7.45;3.63;;;14.30;94.20;;;;;;4972486;28;20540;-75
2021/06/16 04:24:00;;;;;;;9.85;3.65;;;14.40;94.20;;;;;;4972571;28;20023;-78
2021/06/16 04:26:26;;;;;;;5.63;3.50;;;14.40;94.10;;;;;;4973295;28;20035;-78
2021/06/16 04:28:51;;;;;;;7.05;3.53;;;14.50;94.20;;;;;;4971827;28;20038;-78
2021/06/16 04:31:17;;;;;;;7.10;3.78;;;14.50;94.20;;;;;;4973337;28;20089;-76
2021/06/16 04:33:43;;;;;;;6.60;3.63;;;14.50;94.40;;;;;;4973246;28;20046;-77
2021/06/16 04:36:08;;;;;;;8.90;4.03;;;14.60;94.40;;;;;;4972085;28;20030;-76
2021/06/16 04:38:35;;;;;;;7.88;3.70;;;14.60;94.40;;;;;;4955561;28;20393;-77
2021/06/16 04:41:01;;;;;;;6.60;3.70;;;14.60;94.40;;;;;;4972586;28;20050;-78
2021/06/16 04:43:27;;;;;;;8.70;3.90;;;14.70;94.30;;;;;;4972479;28;20509;-78
2021/06/16 04:45:52;;;;;;;7.53;3.80;;;14.70;94.30;;;;;;4972628;28;20027;-75
2021/06/16 04:48:18;;;;;;;5.75;3.65;;;14.80;94.30;;;;;;4972800;28;20041;-71
2021/06/16 04:50:44;;;;;;;7.00;4.38;;;14.80;94.20;;;;;;4972022;28;20034;-73
2021/06/16 04:53:09;;;;;;;6.95;3.90;;;14.90;94.30;;;;;;4972921;28;20030;-75
2021/06/16 04:55:35;;;;;;;8.57;4.15;;;14.90;94.30;;;;;;4972475;28;20058;-72
2021/06/16 04:58:01;;;;;;;9.48;4.28;;;14.90;94.20;;;;;;4954654;28;20117;-78
2021/06/16 05:00:26;;;;;;;6.93;3.90;;;15.00;94.10;;;;;;4972734;28;20027;-72
2021/06/16 05:02:57;;;;;;;7.35;4.07;;;15.00;94.10;;;;;;4971830;28;20485;-72
2021/06/16 05:05:23;;;;;;;7.38;3.53;;;15.10;94.00;;;;;;4972735;28;20038;-74
2021/06/16 05:07:49;;;;;;;6.63;3.38;;;15.20;93.90;;;;;;4955180;28;20023;-73
2021/06/16 05:10:14;;;;;;;7.07;3.92;;;15.20;93.80;;;;;;4972068;28;20033;-75
2021/06/16 05:12:41;;;;;;;6.85;3.80;;;15.30;93.90;;;;;;4972536;28;20352;-74
2021/06/16 05:15:08;;;;;;;8.32;3.97;;;15.30;93.90;;;;;;4955017;28;20037;-74
2021/06/16 05:17:33;;;;;;;7.50;4.05;;;15.40;94.00;;;;;;4973850;28;20022;-82
2021/06/16 05:19:59;;;;;;;5.50;3.40;;;15.40;93.80;;;;;;4975887;28;20106;-78
2021/06/16 05:22:28;;;;;;;7.32;4.28;;;15.40;93.80;;;;;;4958808;28;20574;-79
2021/06/16 05:24:54;;;;;;;8.88;4.70;;;15.50;93.70;;;;;;4974815;28;20382;-71
2021/06/16 05:27:20;;;;;;;6.28;4.20;;;15.60;93.70;;;;;;4958824;28;20077;-78
2021/06/16 05:29:46;;;;;;;10.98;4.05;;;15.60;93.60;;;;;;4975434;28;20042;-83
2021/06/16 05:32:12;;;;;;;7.22;4.30;;;15.70;93.40;;;;;;4975624;28;20088;-72
2021/06/16 05:34:38;;;;;;;9.10;4.57;;;15.80;93.20;;;;;;4958222;28;20023;-81
2021/06/16 05:37:06;;;;;;;8.98;3.70;;;15.80;93.30;;;;;;4958363;28;20050;-82
2021/06/16 05:39:32;;;;;;;6.00;3.78;;;15.80;93.30;;;;;;4975181;28;20049;-83
2021/06/16 05:41:58;;;;;;;6.45;3.90;;;15.90;93.40;;;;;;4975539;28;20033;-80
2021/06/16 05:44:23;;;;;;;6.07;3.78;;;16.00;93.30;;;;;;4958503;28;20027;-82
2021/06/16 05:46:49;;;;;;;8.13;3.85;;;16.00;93.20;;;;;;4957604;28;20110;-83
2021/06/16 05:49:14;;;;;;;7.25;3.85;;;16.10;93.20;;;;;;4975077;28;20031;-72
2021/06/16 05:51:40;;;;;;;6.80;3.63;;;16.20;93.20;;;;;;4958394;28;20026;-82
2021/06/16 05:54:10;;;;;;;7.13;3.97;;;16.20;93.20;;;;;;4974009;28;20054;-81
2021/06/16 05:56:36;;;;;;;8.60;4.22;;;16.40;93.00;;;;;;4975561;28;20061;-76
2021/06/16 05:59:02;;;;;;;13.15;4.50;;;16.40;92.90;;;;;;4975199;28;20022;-82
2021/06/16 06:01:28;;;;;;;8.25;4.20;;;16.50;92.80;;;;;;4974468;28;20391;-71
2021/06/16 06:03:53;;;;;;;7.15;4.53;;;16.60;92.50;;;;;;4957231;28;20027;-72
2021/06/16 06:06:19;;;;;;;8.85;4.30;;;16.70;92.40;;;;;;4974614;28;20029;-72
2021/06/16 06:08:44;;;;;;;7.88;4.07;;;16.70;92.30;;;;;;4957066;28;20447;-76
2021/06/16 06:11:10;;;;;;;6.72;4.90;;;16.80;92.20;;;;;;4957783;28;20022;-79
2021/06/16 06:13:35;;;;;;;8.73;3.88;;;16.90;92.00;;;;;;4974473;28;20055;-76
2021/06/16 06:16:01;;;;;;;4.28;3.58;;;17.00;91.90;;;;;;4957465;28;20030;-77
2021/06/16 06:18:26;;;;;;;9.32;3.90;;;17.10;91.80;;;;;;4957978;28;20109;-76
2021/06/16 06:20:52;;;;;;;8.32;4.18;;;17.20;91.40;;;;;;4973499;28;20026;-75
2021/06/16 06:23:18;;;;;;;5.35;3.45;;;17.30;91.30;;;;;;4957586;28;20391;-76
2021/06/16 06:25:43;;;;;;;7.28;3.88;;;17.40;91.20;;;;;;4974694;28;20038;-71
2021/06/16 06:28:09;;;;;;;5.65;3.65;;;17.50;91.10;;;;;;4973602;28;20035;-70
2021/06/16 06:30:37;;;;;;;6.47;4.07;;;17.60;91.00;;;;;;4956747;28;20030;-79
2021/06/16 06:33:04;;;;;;;7.47;3.72;;;17.60;91.00;;;;;;4974862;28;20388;-73
2021/06/16 06:35:29;;;;;;;5.05;3.78;;;17.70;90.90;;;;;;4974171;28;20055;-81
2021/06/16 06:37:55;;;;;;;7.22;4.57;;;17.80;90.70;;;;;;4957097;28;20061;-74
2021/06/16 06:40:21;;;;;;;7.45;4.32;;;17.90;90.30;;;;;;4957160;28;20360;-80
2021/06/16 06:42:46;;;;;;;6.82;4.70;;;18.00;90.20;;;;;;4973430;28;20034;-71
2021/06/16 06:45:12;;;;;;;7.82;4.28;;;18.00;90.10;;;;;;4974852;28;20487;-71
2021/06/16 06:47:38;;;;;;;8.38;3.97;;;18.10;90.10;;;;;;4973985;28;20027;-72
2021/06/16 06:50:11;;;;;;;11.68;4.28;;;18.20;89.60;;;;;;4973035;28;20066;-70
2021/06/16 06:52:37;;;;;;;7.07;4.32;;;18.30;89.10;;;;;;4973364;28;20092;-75
2021/06/16 06:55:02;;;;;;;8.85;4.75;;;18.40;88.60;;;;;;4973591;28;20051;-73
2021/06/16 06:57:28;;;;;;;7.90;3.78;;;18.50;88.20;;;;;;4973673;28;20031;-76
2021/06/16 06:59:53;;;;;;;9.00;4.20;;;18.60;88.20;;;;;;4956523;28;20023;-72
2021/06/16 07:02:19;;;;;;;8.27;3.70;;;18.70;87.40;;;;;;4974454;28;20030;-78
2021/06/16 07:04:44;;;;;;;5.03;3.83;;;18.80;86.90;;;;;;4973267;28;20019;-73
2021/06/16 07:07:10;;;;;;;9.68;4.22;;;19.00;87.00;;;;;;4956839;28;20027;-80
2021/06/16 07:09:35;;;;;;;9.63;3.85;;;19.10;86.50;;;;;;4973781;28;20422;-75
2021/06/16 07:12:01;;;;;;;5.72;3.60;;;19.20;86.30;;;;;;4969939;28;20026;-67
2021/06/16 07:14:26;;;;;;;6.05;4.00;;;19.40;85.90;;;;;;4946514;28;20035;-76
2021/06/16 07:16:52;;;;;;;4.95;3.92;;;19.50;85.90;;;;;;4972770;28;20076;-71
2021/06/16 07:19:17;;;;;;;6.20;3.40;;;19.60;85.00;;;;;;4947553;29;20082;-70
2021/06/16 07:21:43;;;;;;;5.90;3.40;;;19.80;84.70;;;;;;4954245;29;20098;-78
2021/06/16 07:24:10;;;;;;;8.75;3.78;;;20.00;83.70;;;;;;4968394;28;20027;-76
2021/06/16 07:26:35;;;;;;;5.07;3.72;;;20.10;83.00;;;;;;4973489;28;20375;-71
2021/06/16 07:29:01;;;;;;;6.95;3.22;;;20.30;83.10;;;;;;4972521;28;20031;-77
2021/06/16 07:31:27;;;;;;;8.15;3.58;;;20.40;83.20;;;;;;4947067;29;20027;-84
2021/06/16 07:33:53;;;;;;;5.10;2.80;;;20.50;82.00;;;;;;4953488;29;20038;-79
2021/06/16 07:36:18;;;;;;;8.13;3.70;;;20.60;80.90;;;;;;4936653;29;20114;-73
2021/06/16 07:38:44;;;;;;;5.55;3.13;;;20.80;81.00;;;;;;4953103;29;20415;-69
2021/06/16 07:41:10;;;;;;;7.63;2.80;;;20.90;79.60;;;;;;4959605;28;20480;-76
2021/06/16 07:43:35;;;;;;;6.38;3.95;;;21.00;79.60;;;;;;4972320;28;20027;-71
2021/06/16 07:46:01;;;;;;;6.63;3.25;;;21.20;78.80;;;;;;4955345;28;20506;-70
2021/06/16 07:48:26;;;;;;;5.35;2.80;;;21.30;78.00;;;;;;4955398;28;20514;-75
2021/06/16 07:50:52;;;;;;;5.88;2.75;;;21.40;77.00;;;;;;4955355;28;20110;-77
2021/06/16 07:53:17;;;;;;;7.85;3.35;;;21.40;76.60;;;;;;4953383;28;20378;-73
2021/06/16 07:55:43;;;;;;;6.32;3.03;;;21.50;76.70;;;;;;4972975;28;20086;-69
2021/06/16 07:58:10;;;;;;;8.52;3.33;;;21.60;75.90;;;;;;4955256;28;20482;-72
2021/06/16 08:00:36;;;;;;;6.43;3.28;;;21.60;75.80;;;;;;4954975;28;20098;-76
2021/06/16 08:03:02;;;;;;;5.57;3.22;;;21.70;74.70;;;;;;4971533;28;20061;-78
2021/06/16 08:05:28;;;;;;;5.88;2.75;;;21.80;73.80;;;;;;4954226;28;20118;-76
2021/06/16 08:07:53;;;;;;;5.70;2.90;;;21.90;73.00;;;;;;4962826;28;20539;-72
2021/06/16 08:10:19;;;;;;;5.18;2.50;;;22.00;72.70;;;;;;4953933;29;20029;-77
2021/06/16 08:12:45;;;;;;;4.75;2.45;;;22.10;72.70;;;;;;4967960;28;20031;-77
2021/06/16 08:15:11;;;;;;;5.47;2.70;;;22.20;73.30;;;;;;4972480;28;20118;-75
2021/06/16 08:17:37;;;;;;;5.85;2.65;;;22.20;72.40;;;;;;4970575;28;20364;-77
2021/06/16 08:20:05;;;;;;;6.32;2.67;;;22.30;72.90;;;;;;4971000;28;20033;-82
2021/06/16 08:22:30;;;;;;;4.13;2.10;;;22.40;72.60;;;;;;4954869;28;20126;-72
2021/06/16 08:25:00;;;;;;;4.82;2.17;;;22.40;72.60;;;;;;4954966;28;20105;-82
2021/06/16 08:27:26;;;;;;;4.32;2.58;;;22.50;72.10;;;;;;4972325;28;20034;-84
2021/06/16 08:29:51;;;;;;;5.25;2.25;;;22.60;72.30;;;;;;4955333;28;20039;-80
2021/06/16 08:32:17;;;;;;;4.20;2.42;;;22.70;72.40;;;;;;4955424;28;20435;-74
2021/06/16 08:34:42;;;;;;;5.00;2.80;;;22.70;71.30;;;;;;4954426;28;20026;-80
2021/06/16 08:37:08;;;;;;;6.60;2.80;;;22.80;70.90;;;;;;4971695;28;20050;-81
2021/06/16 08:39:34;;;;;;;6.30;3.20;;;22.80;71.50;;;;;;4955877;28;20019;-79
2021/06/16 08:42:00;;;;;;;6.10;3.63;;;23.00;70.60;;;;;;4953974;28;20039;-82
2021/06/16 08:44:27;;;;;;;4.15;2.80;;;23.00;69.70;;;;;;4971632;28;20593;-75
2021/06/16 08:46:54;;;;;;;5.07;2.45;;;23.00;69.70;;;;;;4971827;28;20434;-80
2021/06/16 08:49:19;;;;;;;5.25;2.65;;;23.10;69.60;;;;;;4954569;28;20058;-78
2021/06/16 08:51:45;;;;;;;3.78;2.10;;;23.20;69.90;;;;;;4955351;28;20050;-75
2021/06/16 08:54:10;;;;;;;6.18;2.70;;;23.20;70.40;;;;;;4975038;28;20085;-80
2021/06/16 08:56:37;;;;;;;4.38;2.55;;;23.30;70.30;;;;;;4973418;28;20033;-72
2021/06/16 08:59:03;;;;;;;3.58;2.95;;;23.30;69.30;;;;;;4972331;28;20034;-72
2021/06/16 09:01:28;;;;;;;4.43;2.50;;;23.40;69.70;;;;;;4974822;28;20026;-72
2021/06/16 09:03:54;;;;;;;5.13;2.72;;;23.50;70.30;;;;;;4974388;28;20110;-74
2021/06/16 09:06:19;;;;;;;3.63;2.33;;;23.60;69.70;;;;;;4977195;28;20030;-81
2021/06/16 09:09:06;;;;;;;4.63;2.72;;;23.60;69.80;;;;;;4962079;28;20031;-71
2021/06/16 09:11:42;;;;;;;3.85;2.50;;;23.70;70.00;;;;;;4976881;28;20077;-75
2021/06/16 09:14:19;;;;;;;2.90;2.63;;;23.70;69.00;;;;;;4975499;28;20047;-71
2021/06/16 15:38:46;;;;;;;6.35;4.13;;;30.30;56.30;;;;;;5633307;23;20051;-76
2021/06/16 15:41:19;;;;;;;7.75;4.85;;;30.20;56.60;;;;;;4938463;28;20035;-71
2021/06/16 15:43:46;;;;;;;8.43;4.97;;;30.30;56.20;;;;;;4913710;29;20047;-80
2021/06/16 15:46:12;;;;;;;5.38;3.72;;;30.40;56.50;;;;;;4930867;29;20106;-78
2021/06/16 15:48:38;;;;;;;5.57;3.60;;;30.70;56.50;;;;;;4931495;29;20034;-72
2021/06/16 15:51:07;;;;;;;7.90;3.83;;;30.80;56.40;;;;;;4950596;29;20035;-77
2021/06/16 15:53:32;;;;;;;6.88;4.30;;;30.80;56.60;;;;;;4933033;29;20049;-73
2021/06/16 15:55:58;;;;;;;7.47;4.43;;;31.00;55.50;;;;;;4932932;29;20495;-71
2021/06/16 15:58:26;;;;;;;6.85;4.60;;;31.20;55.20;;;;;;4933734;29;20093;-72
2021/06/16 16:00:52;;;;;;;8.45;3.95;;;31.20;55.70;;;;;;4949661;28;20027;-76
2021/06/16 16:03:18;;;;;;;9.93;4.78;;;31.30;55.00;;;;;;4950684;29;20032;-81
2021/06/16 16:05:44;;;;;;;5.53;4.25;;;31.50;54.30;;;;;;4932941;29;20038;-71
2021/06/16 16:08:10;;;;;;;6.03;4.53;;;31.60;53.90;;;;;;4950935;29;20341;-71
2021/06/16 16:10:44;;;;;;;6.03;4.45;;;31.80;52.50;;;;;;4932422;29;20098;-84
2021/06/16 16:13:16;;;;;;;7.55;4.20;;;31.80;52.40;;;;;;4914784;29;20047;-79
2021/06/16 16:15:42;;;;;;;5.10;4.00;;;31.90;53.20;;;;;;4932382;29;20037;-77
2021/06/16 16:18:09;;;;;;;6.78;4.43;;;31.90;52.30;;;;;;4932932;29;20023;-79
2021/06/16 16:20:36;;;;;;;6.00;3.92;;;32.00;52.40;;;;;;4950471;28;20074;-78
2021/06/16 16:23:03;;;;;;;4.82;4.00;;;31.90;52.90;;;;;;4949544;28;20064;-83
2021/06/16 16:25:28;;;;;;;8.65;6.50;;;32.00;54.40;;;;;;4933537;29;20024;-81
2021/06/16 16:28:01;;;;;;;8.00;5.38;;;32.00;55.20;;;;;;4931564;29;20479;-81
2021/06/16 16:30:29;;;;;;;9.68;8.63;;;32.00;55.80;;;;;;4915178;29;20099;-74
2021/06/16 16:32:54;;;;;;;9.18;7.50;;;31.90;53.80;;;;;;4924309;29;20110;-79
2021/06/16 16:35:22;;;;;;;5.82;5.03;;;31.40;55.40;;;;;;4949797;29;20118;-75
2021/06/16 16:37:48;;;;;;;4.50;4.10;;;31.00;56.70;;;;;;4932788;29;20026;-74
2021/06/16 16:40:16;;;;;;;6.22;4.10;;;31.00;56.50;;;;;;4932860;29;20051;-75
2021/06/16 16:42:42;;;;;;;5.18;4.03;;;31.10;55.70;;;;;;4949923;29;20059;-74
2021/06/16 16:45:08;;;;;;;5.43;3.90;;;31.10;56.30;;;;;;4950596;28;20117;-85
2021/06/16 16:47:33;;;;;;;6.50;4.40;;;30.90;57.70;;;;;;4950488;29;20019;-80
2021/06/16 16:50:00;;;;;;;4.28;3.65;;;30.90;58.00;;;;;;4932574;29;20096;-85
2021/06/16 16:52:25;;;;;;;6.88;3.90;;;31.00;58.70;;;;;;4950354;29;20054;-73
2021/06/16 16:54:51;;;;;;;4.75;4.10;;;31.20;58.70;;;;;;4932973;29;20070;-73
2021/06/16 16:57:17;;;;;;;6.00;4.72;;;31.20;56.40;;;;;;4949682;29;20067;-72
2021/06/16 16:59:42;;;;;;;5.60;4.30;;;31.20;55.70;;;;;;4933160;28;20082;-75
2021/06/16 17:02:08;;;;;;;5.40;4.40;;;31.20;56.00;;;;;;4949574;28;20442;-81
2021/06/16 17:04:34;;;;;;;12.32;5.07;;;31.10;55.00;;;;;;4932323;28;20023;-80
2021/06/16 17:07:00;;;;;;;8.93;5.60;;;30.80;58.20;;;;;;4949980;29;20027;-80
2021/06/16 17:09:26;;;;;;;11.20;6.70;;;30.50;61.20;;;;;;4950756;29;20515;-72
2021/06/16 17:11:51;;;;;;;6.78;5.10;;;30.40;60.00;;;;;;4932334;29;20034;-73
2021/06/16 17:14:17;;;;;;;14.75;9.07;;;30.10;67.00;;;;;;4935608;29;20068;-82
2021/06/16 17:16:43;;;;;;;17.13;11.13;;;29.10;75.90;;;;;;4953449;29;20031;-76
2021/06/16 17:19:08;;;;;;;14.68;10.93;;;27.90;86.30;;;;;;4953226;28;20027;-73
2021/06/16 17:21:34;;;;;;;14.10;11.60;;;27.30;91.00;;;;;;4953095;28;20043;-70
2021/06/16 17:24:00;;;;;;;10.07;8.95;;;27.00;91.60;;;;;;4935962;29;20028;-72
2021/06/16 17:26:25;;;;;;;7.93;7.22;;;26.80;92.00;;;;;;4935642;29;20137;-75
2021/06/16 17:28:51;;;;;;;7.25;6.55;;;26.50;92.30;;;;;;4952594;28;20086;-72
2021/06/16 17:31:17;;;;;;;7.43;6.72;;;26.10;93.00;;;;;;4953325;28;20074;-69
2021/06/16 17:33:42;;;;;;;7.97;7.28;;;25.90;93.60;;;;;;4935345;29;20023;-72
2021/06/16 17:36:08;;;;;;;7.50;6.80;;;25.80;94.10;;;;;;4935904;29;20035;-71
2021/06/16 17:38:34;;;;;;;7.65;6.95;;;25.60;94.40;;;;;;4952706;28;20114;-72
2021/06/16 17:41:00;;;;;;;7.85;6.88;;;25.70;94.40;;;;;;4952284;28;20423;-76
2021/06/16 17:43:26;;;;;;;7.43;6.80;;;25.70;94.00;;;;;;4935797;29;20019;-74
2021/06/16 17:45:51;;;;;;;7.53;6.55;;;25.70;94.10;;;;;;4952095;28;20066;-75
2021/06/16 17:48:17;;;;;;;8.15;6.57;;;25.70;94.20;;;;;;4935855;29;20026;-71
2021/06/16 17:50:47;;;;;;;9.27;6.35;;;25.70;94.10;;;;;;4935558;29;20368;-77
2021/06/16 17:53:12;;;;;;;7.97;6.32;;;25.70;94.10;;;;;;4951747;29;20102;-72
2021/06/16 17:55:38;;;;;;;7.55;6.65;;;25.70;94.40;;;;;;4945317;29;20739;-71
2021/06/16 17:58:04;;;;;;;8.27;6.50;;;25.70;94.20;;;;;;4929836;29;20028;-76
2021/06/16 18:00:31;;;;;;;7.07;6.38;;;25.70;93.90;;;;;;4934674;29;20027;-78
2021/06/16 18:02:59;;;;;;;8.20;6.70;;;25.70;94.30;;;;;;4934943;29;20031;-72
2021/06/16 18:05:25;;;;;;;7.63;5.85;;;25.60;94.10;;;;;;4951406;29;20273;-79
2021/06/16 18:07:52;;;;;;;10.20;6.75;;;25.60;94.00;;;;;;4951903;29;20151;-82
2021/06/16 18:10:19;;;;;;;8.68;7.78;;;25.50;93.60;;;;;;4953104;28;20042;-81
2021/06/16 18:12:45;;;;;;;8.80;6.78;;;25.40;93.90;;;;;;4952500;29;20449;-84
2021/06/16 18:15:12;;;;;;;10.50;9.45;;;25.40;94.00;;;;;;4935355;29;20020;-80
2021/06/16 18:17:38;;;;;;;11.50;8.57;;;25.30;94.60;;;;;;4952844;28;20037;-75
2021/06/16 18:20:04;;;;;;;9.63;8.65;;;25.30;94.90;;;;;;4952773;28;20110;-77
2021/06/16 18:22:30;;;;;;;18.42;13.05;;;25.20;94.60;;;;;;4951676;29;20057;-79
2021/06/16 18:24:56;;;;;;;25.23;13.60;;;25.10;96.70;;;;;;4953532;28;20043;-76
2021/06/16 18:27:22;;;;;;;18.63;11.93;;;24.90;98.40;;;;;;4954702;29;20106;-80
2021/06/16 18:29:47;;;;;;;14.65;12.15;;;24.50;99.90;;;;;;4950663;28;20050;-80
2021/06/16 18:32:13;;;;;;;20.70;13.88;;;24.20;99.90;;;;;;4934624;28;20231;-78
2021/06/16 18:34:39;;;;;;;19.10;16.05;;;23.70;99.90;;;;;;4953272;29;20107;-74
2021/06/16 18:37:05;;;;;;;64.60;24.80;;;23.50;99.90;;;;;;4935503;29;20047;-75
2021/06/16 18:39:34;;;;;;;22.15;17.13;;;23.50;99.90;;;;;;4935489;29;20078;-82
2021/06/16 18:42:03;;;;;;;18.02;16.13;;;23.60;99.90;;;;;;4933842;29;20035;-90
2021/06/16 18:44:29;;;;;;;16.60;15.00;;;23.70;99.90;;;;;;4936613;29;20023;-94
2021/06/16 18:46:54;;;;;;;15.25;13.75;;;23.70;99.90;;;;;;4936581;29;20086;-84
2021/06/16 18:49:20;;;;;;;15.93;13.75;;;23.60;99.90;;;;;;4952159;29;20054;-86
2021/06/16 18:51:46;;;;;;;16.83;14.38;;;23.60;99.90;;;;;;4941648;29;20027;-74
2021/06/16 18:54:24;;;;;;;16.55;14.88;;;23.50;99.90;;;;;;4919380;29;20082;-81
2021/06/16 18:56:53;;;;;;;18.00;13.88;;;23.50;99.90;;;;;;4932387;29;20543;-84
2021/06/16 18:59:19;;;;;;;17.25;13.40;;;23.30;99.90;;;;;;4933874;29;20481;-83
2021/06/16 19:02:07;;;;;;;15.13;13.65;;;23.20;99.90;;;;;;4934631;29;20083;-83
2021/06/16 19:07:03;;;;;;;16.70;15.00;;;22.80;99.90;;;;;;4952255;28;20118;-77
2021/06/16 19:09:29;;;;;;;15.32;13.93;;;22.70;99.90;;;;;;4934836;29;20035;-85